PWSweather.com
Personal Weather Stations
Station Observations
DAVIS2016
WorthingGB

WorthingGB

Lat: 50.8130266, Lon: -0.3832443000000012

Elevation: 34.8

Station Type: davis vantage vue 6250

High Low Average
Temperature 50.5°F10.3°F 46.2°F7.9°F 49.0°F9.4°F
Dew Point 48.2°F9.0°F 43.5°F6.4°F 45.7°F7.6°F
Winds 15.0 mph -24.1 mph - 1.0 mph 1.6 mph 10.0 mph 16.1 mph
Wind Gusts 27.0 mph43.5 mph 4.0 mph6.4 mph 19.4 mph31.2 mph
Humidity 94% 77% 88%
Pressure 30.05 in1017.60 in 29.60 in1002.40 in -
Precipitation 1.59 in40.40 in - -
Hour Temp Dew Point Humidity Winds Wind Gusts Pressure Precip Precip Rate Daily Precip Total
12:00 AM 50.0°F10.0°C 47.8°F8.8°C 92% 8.0 mph S12.9 kmh S 18.0 mph29.0 kmh 30.05 in1017.6 mb 0.00 in0.0 mm 0.00 in0.0 mm 0.00 in0.0 mm
12:15 AM 50.1°F10.1°C 48.2°F9.0°C 93% 9.0 mph S14.5 kmh S 16.0 mph25.7 kmh 30.05 in1017.6 mb 0.00 in0.0 mm 0.00 in0.0 mm 0.00 in0.0 mm
12:30 AM 50.0°F10.0°C 47.8°F8.8°C 92% 9.0 mph S14.5 kmh S 22.0 mph35.4 kmh 30.05 in1017.6 mb 0.00 in0.0 mm 0.00 in0.0 mm 0.00 in0.0 mm
12:45 AM 50.1°F10.1°C 47.9°F8.8°C 92% 9.0 mph S14.5 kmh S 17.0 mph27.4 kmh 30.05 in1017.6 mb 0.00 in0.0 mm 0.00 in0.0 mm 0.00 in0.0 mm
01:00 AM 50.0°F10.0°C 47.8°F8.8°C 92% 8.0 mph S12.9 kmh S 14.0 mph22.5 kmh 30.05 in1017.6 mb 0.00 in0.0 mm 0.00 in0.0 mm 0.00 in0.0 mm
01:15 AM 50.0°F10.0°C 47.8°F8.8°C 92% 8.0 mph S12.9 kmh S 17.0 mph27.4 kmh 30.04 in1017.3 mb 0.00 in0.0 mm 0.00 in0.0 mm 0.00 in0.0 mm
01:30 AM 50.0°F10.0°C 47.8°F8.8°C 92% 8.0 mph S12.9 kmh S 14.0 mph22.5 kmh 30.03 in1016.9 mb 0.00 in0.0 mm 0.00 in0.0 mm 0.00 in0.0 mm
01:45 AM 50.0°F10.0°C 48.1°F8.9°C 93% 8.0 mph S12.9 kmh S 18.0 mph29.0 kmh 30.03 in1016.9 mb 0.00 in0.0 mm 0.00 in0.0 mm 0.00 in0.0 mm
02:00 AM 50.0°F10.0°C 48.1°F8.9°C 93% 9.0 mph S14.5 kmh S 18.0 mph29.0 kmh 30.03 in1016.9 mb 0.00 in0.0 mm 0.00 in0.0 mm 0.00 in0.0 mm
02:15 AM 50.0°F10.0°C 47.8°F8.8°C 92% 9.0 mph S14.5 kmh S 17.0 mph27.4 kmh 30.02 in1016.6 mb 0.00 in0.0 mm 0.00 in0.0 mm 0.00 in0.0 mm
02:30 AM 50.2°F10.1°C 48.0°F8.9°C 92% 9.0 mph S14.5 kmh S 19.0 mph30.6 kmh 30.02 in1016.6 mb 0.00 in0.0 mm 0.00 in0.0 mm 0.00 in0.0 mm
02:45 AM 50.4°F10.2°C 47.9°F8.8°C 91% 10.0 mph S16.1 kmh S 22.0 mph35.4 kmh 30.01 in1016.3 mb 0.00 in0.0 mm 0.00 in0.0 mm 0.00 in0.0 mm
03:00 AM 50.4°F10.2°C 47.9°F8.8°C 91% 12.0 mph S19.3 kmh S 21.0 mph33.8 kmh 30.00 in1015.9 mb 0.00 in0.0 mm 0.00 in0.0 mm 0.00 in0.0 mm
03:15 AM 50.1°F10.1°C 47.6°F8.7°C 91% 9.0 mph S14.5 kmh S 19.0 mph30.6 kmh 29.99 in1015.6 mb 0.00 in0.0 mm 0.00 in0.0 mm 0.00 in0.0 mm
03:30 AM 49.9°F9.9°C 47.7°F8.7°C 92% 8.0 mph SSE12.9 kmh SSE 15.0 mph24.1 kmh 29.98 in1015.2 mb 0.00 in0.0 mm 0.00 in0.0 mm 0.00 in0.0 mm
03:45 AM 50.1°F10.1°C 47.6°F8.7°C 91% 12.0 mph S19.3 kmh S 21.0 mph33.8 kmh 29.98 in1015.2 mb 0.00 in0.0 mm 0.00 in0.0 mm 0.00 in0.0 mm
04:00 AM 50.3°F10.2°C 47.5°F8.6°C 90% 14.0 mph S22.5 kmh S 24.0 mph38.6 kmh 29.98 in1015.2 mb 0.00 in0.0 mm 0.00 in0.0 mm 0.00 in0.0 mm
04:15 AM 50.2°F10.1°C 47.4°F8.6°C 90% 12.0 mph S19.3 kmh S 23.0 mph37.0 kmh 29.98 in1015.2 mb 0.00 in0.0 mm 0.00 in0.0 mm 0.00 in0.0 mm
04:30 AM 50.2°F10.1°C 47.4°F8.6°C 90% 12.0 mph S19.3 kmh S 26.0 mph41.8 kmh 29.97 in1014.9 mb 0.00 in0.0 mm 0.00 in0.0 mm 0.00 in0.0 mm
04:45 AM 50.2°F10.1°C 47.1°F8.4°C 89% 13.0 mph S20.9 kmh S 23.0 mph37.0 kmh 29.96 in1014.6 mb 0.00 in0.0 mm 0.00 in0.0 mm 0.00 in0.0 mm
05:00 AM 50.2°F10.1°C 47.1°F8.4°C 89% 13.0 mph S20.9 kmh S 24.0 mph38.6 kmh 29.96 in1014.6 mb 0.00 in0.0 mm 0.00 in0.0 mm 0.00 in0.0 mm
05:15 AM 50.1°F10.1°C 47.0°F8.3°C 89% 13.0 mph S20.9 kmh S 23.0 mph37.0 kmh 29.95 in1014.2 mb 0.00 in0.0 mm 0.00 in0.0 mm 0.00 in0.0 mm
05:30 AM 50.1°F10.1°C 47.3°F8.5°C 90% 11.0 mph S17.7 kmh S 22.0 mph35.4 kmh 29.95 in1014.2 mb 0.00 in0.0 mm 0.00 in0.0 mm 0.00 in0.0 mm
05:45 AM 50.0°F10.0°C 47.2°F8.4°C 90% 11.0 mph SSE17.7 kmh SSE 21.0 mph33.8 kmh 29.94 in1013.9 mb 0.00 in0.0 mm 0.00 in0.0 mm 0.00 in0.0 mm
06:00 AM 50.0°F10.0°C 47.2°F8.4°C 90% 11.0 mph SSE17.7 kmh SSE 19.0 mph30.6 kmh 29.94 in1013.9 mb 0.00 in0.0 mm 0.00 in0.0 mm 0.00 in0.0 mm
06:15 AM 49.9°F9.9°C 46.8°F8.2°C 89% 11.0 mph SSE17.7 kmh SSE 25.0 mph40.2 kmh 29.93 in1013.5 mb 0.00 in0.0 mm 0.00 in0.0 mm 0.00 in0.0 mm
06:30 AM 49.8°F9.9°C 46.7°F8.2°C 89% 12.0 mph SSE19.3 kmh SSE 23.0 mph37.0 kmh 29.93 in1013.5 mb 0.00 in0.0 mm 0.00 in0.0 mm 0.00 in0.0 mm
06:45 AM 49.8°F9.9°C 46.4°F8.0°C 88% 13.0 mph SSE20.9 kmh SSE 27.0 mph43.5 kmh 29.92 in1013.2 mb 0.00 in0.0 mm 0.00 in0.0 mm 0.00 in0.0 mm
07:00 AM 49.5°F9.7°C 46.1°F7.8°C 88% 13.0 mph SSE20.9 kmh SSE 24.0 mph38.6 kmh 29.91 in1012.9 mb 0.00 in0.0 mm 0.00 in0.0 mm 0.00 in0.0 mm
07:15 AM 49.3°F9.6°C 45.9°F7.7°C 88% 12.0 mph SSE19.3 kmh SSE 24.0 mph38.6 kmh 29.91 in1012.9 mb 0.00 in0.0 mm 0.00 in0.0 mm 0.00 in0.0 mm
07:30 AM 49.2°F9.6°C 45.8°F7.7°C 88% 13.0 mph SSE20.9 kmh SSE 22.0 mph35.4 kmh 29.91 in1012.9 mb 0.00 in0.0 mm 0.00 in0.0 mm 0.00 in0.0 mm
07:45 AM 49.2°F9.6°C 45.8°F7.7°C 88% 14.0 mph SSE22.5 kmh SSE 24.0 mph38.6 kmh 29.91 in1012.9 mb 0.00 in0.0 mm 0.00 in0.0 mm 0.00 in0.0 mm
08:00 AM 49.1°F9.5°C 45.7°F7.6°C 88% 14.0 mph SSE22.5 kmh SSE 26.0 mph41.8 kmh 29.91 in1012.9 mb 0.00 in0.0 mm 0.00 in0.0 mm 0.00 in0.0 mm
08:15 AM 49.3°F9.6°C 45.6°F7.6°C 87% 15.0 mph SSE24.1 kmh SSE 23.0 mph37.0 kmh 29.91 in1012.9 mb 0.00 in0.0 mm 0.00 in0.0 mm 0.00 in0.0 mm
08:30 AM 49.3°F9.6°C 45.6°F7.6°C 87% 13.0 mph SSE20.9 kmh SSE 24.0 mph38.6 kmh 29.92 in1013.2 mb 0.00 in0.0 mm 0.00 in0.0 mm 0.00 in0.0 mm
08:45 AM 49.3°F9.6°C 45.9°F7.7°C 88% 12.0 mph SSE19.3 kmh SSE 21.0 mph33.8 kmh 29.92 in1013.2 mb 0.00 in0.0 mm 0.00 in0.0 mm 0.00 in0.0 mm
09:00 AM 49.2°F9.6°C 45.8°F7.7°C 88% 12.0 mph SSE19.3 kmh SSE 20.0 mph32.2 kmh 29.91 in1012.9 mb 0.00 in0.0 mm 0.00 in0.0 mm 0.00 in0.0 mm
09:15 AM 49.2°F9.6°C 45.8°F7.7°C 88% 11.0 mph SSE17.7 kmh SSE 20.0 mph32.2 kmh 29.91 in1012.9 mb 0.00 in0.0 mm 0.00 in0.0 mm 0.00 in0.0 mm
09:30 AM 49.2°F9.6°C 45.8°F7.7°C 88% 11.0 mph SE17.7 kmh SE 18.0 mph29.0 kmh 29.90 in1012.5 mb 0.00 in0.0 mm 0.00 in0.0 mm 0.00 in0.0 mm
09:45 AM 49.1°F9.5°C 45.7°F7.6°C 88% 10.0 mph SE16.1 kmh SE 20.0 mph32.2 kmh 29.89 in1012.2 mb 0.00 in0.0 mm 0.00 in0.0 mm 0.00 in0.0 mm
10:00 AM 49.1°F9.5°C 45.7°F7.6°C 88% 10.0 mph SE16.1 kmh SE 21.0 mph33.8 kmh 29.88 in1011.9 mb 0.00 in0.0 mm 0.00 in0.0 mm 0.00 in0.0 mm
10:15 AM 49.1°F9.5°C 45.4°F7.4°C 87% 10.0 mph SSE16.1 kmh SSE 20.0 mph32.2 kmh 29.88 in1011.9 mb 0.00 in0.0 mm 0.00 in0.0 mm 0.00 in0.0 mm
10:30 AM 49.2°F9.6°C 45.2°F7.3°C 86% 10.0 mph SE16.1 kmh SE 18.0 mph29.0 kmh 29.87 in1011.5 mb 0.00 in0.0 mm 0.00 in0.0 mm 0.00 in0.0 mm
10:45 AM 49.0°F9.4°C 45.3°F7.4°C 87% 10.0 mph SE16.1 kmh SE 18.0 mph29.0 kmh 29.85 in1010.8 mb 0.00 in0.0 mm 0.00 in0.0 mm 0.00 in0.0 mm
11:00 AM 48.8°F9.3°C 45.1°F7.3°C 87% 10.0 mph SE16.1 kmh SE 20.0 mph32.2 kmh 29.83 in1010.2 mb 0.00 in0.0 mm 0.00 in0.0 mm 0.00 in0.0 mm
11:15 AM 49.0°F9.4°C 45.3°F7.4°C 87% 10.0 mph SE16.1 kmh SE 17.0 mph27.4 kmh 29.83 in1010.2 mb 0.00 in0.0 mm 0.00 in0.0 mm 0.00 in0.0 mm
11:30 AM 49.5°F9.7°C 44.9°F7.2°C 84% 11.0 mph SE17.7 kmh SE 21.0 mph33.8 kmh 29.82 in1009.8 mb 0.00 in0.0 mm 0.00 in0.0 mm 0.00 in0.0 mm
11:45 AM 49.7°F9.8°C 45.1°F7.3°C 84% 11.0 mph SE17.7 kmh SE 22.0 mph35.4 kmh 29.81 in1009.5 mb 0.00 in0.0 mm 0.00 in0.0 mm 0.00 in0.0 mm
12:00 PM 49.7°F9.8°C 44.7°F7.1°C 83% 11.0 mph SE17.7 kmh SE 20.0 mph32.2 kmh 29.80 in1009.1 mb 0.00 in0.0 mm 0.00 in0.0 mm 0.00 in0.0 mm
12:15 PM 49.7°F9.8°C 45.1°F7.3°C 84% 11.0 mph SE17.7 kmh SE 19.0 mph30.6 kmh 29.77 in1008.1 mb 0.00 in0.0 mm 0.00 in0.0 mm 0.00 in0.0 mm
12:30 PM 49.6°F9.8°C 44.6°F7.0°C 83% 12.0 mph SE19.3 kmh SE 25.0 mph40.2 kmh 29.76 in1007.8 mb 0.00 in0.0 mm 0.00 in0.0 mm 0.00 in0.0 mm
12:45 PM 49.7°F9.8°C 44.7°F7.1°C 83% 10.0 mph SE16.1 kmh SE 20.0 mph32.2 kmh 29.76 in1007.8 mb 0.00 in0.0 mm 0.00 in0.0 mm 0.00 in0.0 mm
01:00 PM 49.7°F9.8°C 44.1°F6.7°C 81% 11.0 mph SE17.7 kmh SE 20.0 mph32.2 kmh 29.74 in1007.1 mb 0.00 in0.0 mm 0.00 in0.0 mm 0.00 in0.0 mm
01:15 PM 49.8°F9.9°C 44.2°F6.8°C 81% 12.0 mph SE19.3 kmh SE 20.0 mph32.2 kmh 29.72 in1006.4 mb 0.00 in0.0 mm 0.00 in0.0 mm 0.00 in0.0 mm
01:30 PM 50.0°F10.0°C 44.1°F6.7°C 80% 11.0 mph SE17.7 kmh SE 20.0 mph32.2 kmh 29.72 in1006.4 mb 0.00 in0.0 mm 0.00 in0.0 mm 0.00 in0.0 mm
01:45 PM 50.3°F10.2°C 43.7°F6.5°C 78% 12.0 mph SSE19.3 kmh SSE 25.0 mph40.2 kmh 29.71 in1006.1 mb 0.00 in0.0 mm 0.00 in0.0 mm 0.00 in0.0 mm
02:00 PM 50.2°F10.1°C 43.6°F6.4°C 78% 12.0 mph SSE19.3 kmh SSE 19.0 mph30.6 kmh 29.71 in1006.1 mb 0.00 in0.0 mm 0.00 in0.0 mm 0.00 in0.0 mm
02:15 PM 50.2°F10.1°C 43.9°F6.6°C 79% 11.0 mph SSE17.7 kmh SSE 23.0 mph37.0 kmh 29.71 in1006.1 mb 0.00 in0.0 mm 0.00 in0.0 mm 0.00 in0.0 mm
02:30 PM 50.3°F10.2°C 43.7°F6.5°C 78% 13.0 mph SSE20.9 kmh SSE 23.0 mph37.0 kmh 29.70 in1005.8 mb 0.00 in0.0 mm 0.00 in0.0 mm 0.00 in0.0 mm
02:45 PM 50.4°F10.2°C 43.5°F6.4°C 77% 12.0 mph SSE19.3 kmh SSE 19.0 mph30.6 kmh 29.69 in1005.4 mb 0.00 in0.0 mm 0.00 in0.0 mm 0.00 in0.0 mm
03:00 PM 50.5°F10.3°C 43.6°F6.4°C 77% 13.0 mph SSE20.9 kmh SSE 22.0 mph35.4 kmh 29.69 in1005.4 mb 0.00 in0.0 mm 0.00 in0.0 mm 0.00 in0.0 mm
03:15 PM 50.2°F10.1°C 43.6°F6.4°C 78% 10.0 mph SSE16.1 kmh SSE 21.0 mph33.8 kmh 29.68 in1005.1 mb 0.00 in0.0 mm 0.00 in0.0 mm 0.00 in0.0 mm
03:30 PM 49.8°F9.9°C 43.9°F6.6°C 80% 11.0 mph S17.7 kmh S 21.0 mph33.8 kmh 29.68 in1005.1 mb 0.01 in0.3 mm 0.04 in1.0 mm 0.01 in0.3 mm
03:45 PM 48.9°F9.4°C 43.6°F6.4°C 82% 10.0 mph S16.1 kmh S 20.0 mph32.2 kmh 29.67 in1004.7 mb 0.02 in0.5 mm 0.04 in1.0 mm 0.02 in0.5 mm
04:00 PM 48.9°F9.4°C 44.0°F6.7°C 83% 11.0 mph S17.7 kmh S 20.0 mph32.2 kmh 29.68 in1005.1 mb 0.03 in0.8 mm 0.01 in0.3 mm 0.03 in0.8 mm
04:15 PM 48.2°F9.0°C 43.9°F6.6°C 85% 13.0 mph S20.9 kmh S 22.0 mph35.4 kmh 29.67 in1004.7 mb 0.06 in1.5 mm 0.12 in3.0 mm 0.06 in1.5 mm
04:30 PM 47.5°F8.6°C 43.8°F6.6°C 87% 11.0 mph S17.7 kmh S 24.0 mph38.6 kmh 29.66 in1004.4 mb 0.07 in1.8 mm 0.04 in1.0 mm 0.08 in2.0 mm
04:45 PM 47.3°F8.5°C 44.2°F6.8°C 89% 12.0 mph SSE19.3 kmh SSE 21.0 mph33.8 kmh 29.66 in1004.4 mb 0.08 in2.0 mm 0.04 in1.0 mm 0.10 in2.5 mm
05:00 PM 47.3°F8.5°C 44.5°F6.9°C 90% 10.0 mph S16.1 kmh S 21.0 mph33.8 kmh 29.65 in1004.1 mb 0.10 in2.5 mm 0.03 in0.8 mm 0.13 in3.3 mm
05:15 PM 47.5°F8.6°C 44.7°F7.1°C 90% 12.0 mph S19.3 kmh S 22.0 mph35.4 kmh 29.64 in1003.7 mb 0.10 in2.5 mm 0.00 in0.0 mm 0.16 in4.1 mm
05:30 PM 47.4°F8.6°C 44.6°F7.0°C 90% 10.0 mph SSE16.1 kmh SSE 18.0 mph29.0 kmh 29.64 in1003.7 mb 0.08 in2.0 mm 0.00 in0.0 mm 0.17 in4.3 mm
05:45 PM 47.5°F8.6°C 44.4°F6.9°C 89% 11.0 mph SSE17.7 kmh SSE 25.0 mph40.2 kmh 29.63 in1003.4 mb 0.06 in1.5 mm 0.00 in0.0 mm 0.17 in4.3 mm
06:00 PM 47.5°F8.6°C 44.7°F7.1°C 90% 12.0 mph SSE19.3 kmh SSE 23.0 mph37.0 kmh 29.63 in1003.4 mb 0.05 in1.3 mm 0.00 in0.0 mm 0.18 in4.6 mm
06:15 PM 47.4°F8.6°C 44.6°F7.0°C 90% 13.0 mph SSE20.9 kmh SSE 26.0 mph41.8 kmh 29.62 in1003.0 mb 0.05 in1.3 mm 0.00 in0.0 mm 0.20 in5.1 mm
06:30 PM 47.3°F8.5°C 44.8°F7.1°C 91% 12.0 mph SSE19.3 kmh SSE 22.0 mph35.4 kmh 29.62 in1003.0 mb 0.06 in1.5 mm 0.04 in1.0 mm 0.23 in5.8 mm
06:45 PM 47.3°F8.5°C 44.8°F7.1°C 91% 13.0 mph SSE20.9 kmh SSE 25.0 mph40.2 kmh 29.62 in1003.0 mb 0.07 in1.8 mm 0.04 in1.0 mm 0.24 in6.1 mm
07:00 PM 47.5°F8.6°C 45.3°F7.4°C 92% 12.0 mph S19.3 kmh S 23.0 mph37.0 kmh 29.62 in1003.0 mb 0.09 in2.3 mm 0.03 in0.8 mm 0.27 in6.9 mm
07:15 PM 47.6°F8.7°C 45.7°F7.6°C 93% 11.0 mph S17.7 kmh S 21.0 mph33.8 kmh 29.61 in1002.7 mb 0.09 in2.3 mm 0.00 in0.0 mm 0.30 in7.6 mm
07:30 PM 47.8°F8.8°C 45.9°F7.7°C 93% 13.0 mph S20.9 kmh S 24.0 mph38.6 kmh 29.61 in1002.7 mb 0.10 in2.5 mm 0.04 in1.0 mm 0.33 in8.4 mm
07:45 PM 48.2°F9.0°C 46.3°F7.9°C 93% 13.0 mph S20.9 kmh S 22.0 mph35.4 kmh 29.61 in1002.7 mb 0.13 in3.3 mm 0.12 in3.0 mm 0.37 in9.4 mm
08:00 PM 48.5°F9.2°C 46.9°F8.3°C 94% 11.0 mph S17.7 kmh S 24.0 mph38.6 kmh 29.60 in1002.4 mb 0.13 in3.3 mm 0.00 in0.0 mm 0.39 in9.9 mm
08:15 PM 48.6°F9.2°C 47.0°F8.3°C 94% 10.0 mph S16.1 kmh S 23.0 mph37.0 kmh 29.60 in1002.4 mb 0.09 in2.3 mm 0.00 in0.0 mm 0.39 in9.9 mm
08:30 PM 48.4°F9.1°C 46.2°F7.9°C 92% 7.0 mph SW11.3 kmh SW 15.0 mph24.1 kmh 29.60 in1002.4 mb 0.06 in1.5 mm 0.00 in0.0 mm 0.39 in9.9 mm
08:45 PM 48.3°F9.1°C 46.1°F7.8°C 92% 6.0 mph SW9.7 kmh SW 17.0 mph27.4 kmh 29.61 in1002.7 mb 0.02 in0.5 mm 0.00 in0.0 mm 0.39 in9.9 mm
09:00 PM 48.0°F8.9°C 45.8°F7.7°C 92% 5.0 mph SW8.0 kmh SW 12.0 mph19.3 kmh 29.60 in1002.4 mb 0.01 in0.3 mm 0.00 in0.0 mm 0.40 in10.2 mm
09:15 PM 47.3°F8.5°C 44.5°F6.9°C 90% 5.0 mph SW8.0 kmh SW 13.0 mph20.9 kmh 29.62 in1003.0 mb 0.01 in0.3 mm 0.00 in0.0 mm 0.40 in10.2 mm
09:30 PM 46.8°F8.2°C 44.3°F6.8°C 91% 4.0 mph SW6.4 kmh SW 12.0 mph19.3 kmh 29.63 in1003.4 mb 0.01 in0.3 mm 0.00 in0.0 mm 0.40 in10.2 mm
09:45 PM 46.5°F8.1°C 43.7°F6.5°C 90% 4.0 mph WSW6.4 kmh WSW 10.0 mph16.1 kmh 29.63 in1003.4 mb 0.01 in0.3 mm 0.00 in0.0 mm 0.40 in10.2 mm
10:00 PM 46.3°F7.9°C 43.8°F6.6°C 91% 2.0 mph WSW3.2 kmh WSW 8.0 mph12.9 kmh 29.64 in1003.7 mb 0.00 in0.0 mm 0.00 in0.0 mm 0.40 in10.2 mm
10:15 PM 46.2°F7.9°C 44.0°F6.7°C 92% 1.0 mph WSW1.6 kmh WSW 6.0 mph9.7 kmh 29.64 in1003.7 mb 0.00 in0.0 mm 0.00 in0.0 mm 0.40 in10.2 mm
10:30 PM 46.5°F8.1°C 44.3°F6.8°C 92% 1.0 mph SW1.6 kmh SW 5.0 mph8.0 kmh 29.64 in1003.7 mb 0.00 in0.0 mm 0.00 in0.0 mm 0.40 in10.2 mm
10:45 PM 46.3°F7.9°C 44.1°F6.7°C 92% 1.0 mph SW1.6 kmh SW 4.0 mph6.4 kmh 29.64 in1003.7 mb 0.00 in0.0 mm 0.00 in0.0 mm 0.40 in10.2 mm
11:00 PM 46.8°F8.2°C 44.3°F6.8°C 91% 2.0 mph SW3.2 kmh SW 5.0 mph8.0 kmh 29.64 in1003.7 mb 0.00 in0.0 mm 0.00 in0.0 mm 0.40 in10.2 mm
11:15 PM 47.1°F8.4°C 44.3°F6.8°C 90% 2.0 mph SW3.2 kmh SW 8.0 mph12.9 kmh 29.64 in1003.7 mb 0.00 in0.0 mm 0.00 in0.0 mm 0.40 in10.2 mm
11:30 PM 47.2°F8.4°C 44.7°F7.1°C 91% 2.0 mph SW3.2 kmh SW 7.0 mph11.3 kmh 29.64 in1003.7 mb 0.00 in0.0 mm 0.00 in0.0 mm 0.40 in10.2 mm
11:45 PM 47.6°F8.7°C 45.4°F7.4°C 92% 3.0 mph SW4.8 kmh SW 7.0 mph11.3 kmh 29.64 in1003.7 mb 0.00 in0.0 mm 0.00 in0.0 mm 0.40 in10.2 mm